Time;durP1;ratioP1;P1;durP2;ratioP2;P2;SDS_P1;SDS_P2;PMS_P1;PMS_P2;Temp;Humidity;BMP_temperature;BMP_pressure;BME280_temperature;BME280_humidity;BME280_pressure;Samples;Min_cycle;Max_cycle;Signal;HPM_P1;HPM_P2
2022/12/07 00:01:26;;;;;;;8.55;4.97;;;2.20;99.90;;;;;;5096331;28;20049;-65
2022/12/07 00:03:54;;;;;;;5.85;4.18;;;2.20;99.90;;;;;;5080943;28;20028;-66
2022/12/07 00:06:20;;;;;;;7.63;4.88;;;2.20;99.90;;;;;;5081489;28;20044;-64
2022/12/07 00:08:46;;;;;;;5.75;4.03;;;2.20;99.90;;;;;;5097653;28;20036;-65
2022/12/07 00:11:18;;;;;;;10.05;4.85;;;2.20;99.90;;;;;;5082502;28;20085;-66
2022/12/07 00:13:44;;;;;;;9.35;5.38;;;2.20;99.90;;;;;;5078403;28;20108;-65
2022/12/07 00:16:15;;;;;;;5.07;3.53;;;2.20;99.90;;;;;;5080846;28;20052;-64
2022/12/07 00:18:44;;;;;;;10.15;3.78;;;2.30;99.90;;;;;;5070056;28;20500;-64
2022/12/07 00:21:13;;;;;;;3.85;2.70;;;2.30;99.90;;;;;;5068462;28;20097;-66
2022/12/07 00:23:39;;;;;;;4.25;2.95;;;2.30;99.90;;;;;;5066886;28;20536;-66
2022/12/07 00:26:15;;;;;;;5.07;3.53;;;2.30;99.90;;;;;;5066748;28;20048;-65
2022/12/07 00:28:41;;;;;;;6.68;3.25;;;2.30;99.90;;;;;;5066681;28;20040;-66
2022/12/07 00:31:10;;;;;;;5.45;3.28;;;2.30;99.90;;;;;;5064601;28;20401;-65
2022/12/07 00:33:38;;;;;;;5.95;3.20;;;2.30;99.90;;;;;;5067951;28;20684;-65
2022/12/07 00:36:09;;;;;;;5.13;3.10;;;2.30;99.90;;;;;;5066998;28;20539;-64
2022/12/07 00:38:36;;;;;;;4.03;3.00;;;2.40;99.90;;;;;;5068261;28;20048;-66
2022/12/07 00:41:06;;;;;;;4.85;3.53;;;2.40;99.90;;;;;;5067006;28;20086;-64
2022/12/07 00:43:32;;;;;;;4.60;3.00;;;2.30;99.90;;;;;;5066791;28;20041;-66
2022/12/07 00:45:58;;;;;;;4.40;3.05;;;2.30;99.90;;;;;;5067977;28;20039;-65
2022/12/07 00:48:25;;;;;;;6.28;4.03;;;2.40;99.90;;;;;;5069077;28;20044;-66
2022/12/07 00:50:51;;;;;;;5.60;3.85;;;2.40;99.90;;;;;;5067549;28;20044;-65
2022/12/07 00:53:17;;;;;;;5.35;3.60;;;2.40;99.90;;;;;;5067186;28;20119;-65
2022/12/07 00:55:43;;;;;;;5.07;3.50;;;2.40;99.90;;;;;;5065608;28;20389;-66
2022/12/07 00:58:09;;;;;;;6.70;4.57;;;2.40;99.90;;;;;;5066106;28;20519;-64
2022/12/07 01:00:37;;;;;;;6.72;4.30;;;2.30;99.90;;;;;;5063582;28;20047;-65
2022/12/07 01:03:04;;;;;;;7.57;4.45;;;2.30;99.90;;;;;;5065744;28;20579;-65
2022/12/07 01:05:29;;;;;;;6.57;4.53;;;2.30;99.90;;;;;;5065270;28;20037;-65
2022/12/07 01:07:55;;;;;;;9.30;5.57;;;2.30;99.90;;;;;;5068235;28;20036;-65
2022/12/07 01:10:20;;;;;;;10.73;5.45;;;2.30;99.90;;;;;;5067987;28;20051;-66
2022/12/07 01:12:46;;;;;;;9.98;6.05;;;2.30;99.90;;;;;;5067773;28;20040;-65
2022/12/07 01:15:12;;;;;;;9.50;5.45;;;2.30;99.90;;;;;;5064763;28;20032;-66
2022/12/07 01:17:37;;;;;;;9.27;5.20;;;2.30;99.90;;;;;;5064200;28;20151;-66
2022/12/07 01:20:04;;;;;;;11.18;5.43;;;2.30;99.90;;;;;;5063815;28;20098;-66
2022/12/07 01:22:30;;;;;;;9.65;5.50;;;2.30;99.90;;;;;;5063875;28;20045;-66
2022/12/07 01:24:55;;;;;;;10.68;6.82;;;2.30;99.90;;;;;;5066263;28;20079;-66
2022/12/07 01:27:21;;;;;;;13.25;7.10;;;2.20;99.90;;;;;;5065999;28;20059;-66
2022/12/07 01:29:47;;;;;;;14.07;8.45;;;2.30;99.90;;;;;;5065296;28;20131;-66
2022/12/07 01:32:12;;;;;;;17.98;9.65;;;2.30;99.90;;;;;;5064910;28;20052;-66
2022/12/07 01:34:38;;;;;;;16.77;9.10;;;2.30;99.90;;;;;;5064619;28;20036;-66
2022/12/07 01:37:04;;;;;;;21.17;11.38;;;2.30;99.90;;;;;;5062549;28;20044;-66
2022/12/07 01:39:30;;;;;;;15.18;9.50;;;2.30;99.90;;;;;;5062490;28;20510;-64
2022/12/07 01:41:55;;;;;;;16.52;8.88;;;2.30;99.90;;;;;;5062553;28;20641;-66
2022/12/07 01:44:25;;;;;;;21.20;10.52;;;2.30;99.90;;;;;;5064677;28;20109;-66
2022/12/07 01:47:02;;;;;;;16.27;10.23;;;2.30;99.90;;;;;;5063297;28;20669;-65
2022/12/07 01:49:28;;;;;;;20.20;11.80;;;2.40;99.90;;;;;;5044419;28;20033;-66
2022/12/07 01:52:09;;;;;;;17.58;10.75;;;2.30;99.90;;;;;;5062650;28;20051;-64
2022/12/07 01:54:35;;;;;;;20.90;10.23;;;2.40;99.90;;;;;;5064359;28;20048;-65
2022/12/07 01:57:03;;;;;;;16.17;9.93;;;2.30;99.90;;;;;;5064541;28;20050;-65
2022/12/07 01:59:28;;;;;;;15.48;8.80;;;2.40;99.90;;;;;;5064268;28;20144;-65
2022/12/07 02:01:55;;;;;;;15.75;9.55;;;2.40;99.90;;;;;;5062143;28;20119;-65
2022/12/07 02:04:22;;;;;;;14.98;9.32;;;2.40;99.90;;;;;;5065853;28;20045;-63
2022/12/07 02:06:49;;;;;;;13.57;8.20;;;2.40;99.90;;;;;;5064790;28;20738;-65
2022/12/07 02:09:15;;;;;;;19.63;10.40;;;2.50;99.90;;;;;;5066564;28;20105;-65
2022/12/07 02:11:41;;;;;;;15.48;8.85;;;2.50;99.90;;;;;;5049140;28;20047;-65
2022/12/07 02:14:07;;;;;;;13.88;7.47;;;2.50;99.90;;;;;;5066011;28;20044;-66
2022/12/07 02:16:42;;;;;;;16.77;8.98;;;2.50;99.90;;;;;;5066099;28;20408;-65
2022/12/07 02:19:31;;;;;;;16.65;9.85;;;2.50;99.90;;;;;;5066697;28;20054;-65
2022/12/07 02:22:10;;;;;;;13.13;7.93;;;2.50;99.90;;;;;;5066356;28;20408;-63
2022/12/07 02:24:36;;;;;;;15.20;7.50;;;2.50;99.90;;;;;;5050780;28;20043;-64
2022/12/07 02:27:26;;;;;;;16.38;8.43;;;2.40;99.90;;;;;;5063658;28;20052;-65
2022/12/07 02:30:02;;;;;;;14.43;7.70;;;2.40;99.90;;;;;;5061806;28;20500;-65
2022/12/07 02:32:36;;;;;;;11.52;7.68;;;2.40;99.90;;;;;;5061938;28;20032;-64
2022/12/07 02:35:08;;;;;;;8.88;5.95;;;2.50;99.90;;;;;;5064563;28;20488;-65
2022/12/07 02:37:41;;;;;;;8.27;5.85;;;2.40;99.90;;;;;;5063475;28;20044;-66
2022/12/07 02:40:25;;;;;;;9.75;5.57;;;2.50;99.90;;;;;;5065985;28;20040;-65
2022/12/07 02:42:57;;;;;;;8.48;5.63;;;2.50;99.90;;;;;;5063592;28;20041;-65
2022/12/07 02:45:27;;;;;;;8.35;5.95;;;2.50;99.90;;;;;;5063961;28;20044;-64
2022/12/07 02:47:58;;;;;;;10.05;6.38;;;2.50;99.90;;;;;;5064151;28;20037;-64
2022/12/07 02:50:24;;;;;;;8.23;5.75;;;2.50;99.90;;;;;;5045791;28;20036;-64
2022/12/07 02:52:50;;;;;;;10.35;5.97;;;2.50;99.90;;;;;;5063917;28;20041;-64
2022/12/07 02:55:19;;;;;;;9.35;5.93;;;2.50;99.90;;;;;;5064094;28;20453;-65
2022/12/07 02:57:56;;;;;;;10.90;6.60;;;2.40;99.90;;;;;;5065380;28;20090;-65
2022/12/07 03:00:22;;;;;;;9.68;5.35;;;2.40;99.90;;;;;;5064702;28;20044;-65
2022/12/07 03:03:09;;;;;;;7.00;4.60;;;2.40;99.90;;;;;;5065281;28;20043;-65
2022/12/07 03:05:56;;;;;;;6.80;4.22;;;2.40;99.90;;;;;;5065657;28;20045;-65
2022/12/07 03:08:35;;;;;;;8.10;4.82;;;2.40;99.90;;;;;;5059778;28;20046;-65
2022/12/07 03:11:12;;;;;;;10.30;6.32;;;2.50;99.90;;;;;;5065567;28;20053;-65
2022/12/07 03:13:41;;;;;;;10.48;5.95;;;2.50;99.90;;;;;;5065803;28;20067;-65
2022/12/07 03:16:18;;;;;;;11.52;5.00;;;2.50;99.90;;;;;;5066197;28;20041;-65
2022/12/07 03:18:55;;;;;;;13.77;5.72;;;2.50;99.90;;;;;;5066444;28;20143;-65
2022/12/07 03:21:31;;;;;;;9.38;5.22;;;2.60;99.90;;;;;;5058178;28;20046;-65
2022/12/07 03:24:00;;;;;;;9.85;5.35;;;2.60;99.90;;;;;;5064086;28;20547;-65
2022/12/07 03:26:36;;;;;;;10.95;6.47;;;2.60;99.90;;;;;;5062521;28;20060;-65
2022/12/07 03:29:05;;;;;;;;;;;2.60;99.90;;;;;;5063811;28;20115;-63
2022/12/07 03:31:41;;;;;;;11.48;6.43;;;2.60;99.90;;;;;;5063692;28;19917;-65
2022/12/07 03:34:10;;;;;;;12.40;6.95;;;2.50;99.90;;;;;;5063079;28;20060;-66
2022/12/07 03:36:46;;;;;;;10.77;6.30;;;2.50;99.90;;;;;;5061648;28;20474;-66
2022/12/07 03:39:34;;;;;;;10.77;6.03;;;2.50;99.90;;;;;;5053377;28;20551;-66
2022/12/07 03:42:04;;;;;;;11.10;6.07;;;2.40;99.90;;;;;;5064403;28;20079;-66
2022/12/07 03:44:32;;;;;;;10.82;6.28;;;2.40;99.90;;;;;;5076759;28;20036;-66
2022/12/07 03:47:23;;;;;;;17.20;7.00;;;2.30;99.90;;;;;;5062938;28;20036;-66
2022/12/07 03:50:00;;;;;;;8.77;4.82;;;2.30;99.90;;;;;;5064392;28;20127;-66
2022/12/07 03:52:32;;;;;;;8.50;5.07;;;2.40;99.90;;;;;;5062425;28;20044;-65
2022/12/07 03:55:04;;;;;;;10.98;5.35;;;2.30;99.90;;;;;;5067299;28;20037;-65
2022/12/07 03:57:33;;;;;;;12.60;4.93;;;2.40;99.90;;;;;;5068953;28;20040;-65
2022/12/07 04:00:00;;;;;;;7.95;4.32;;;2.40;99.90;;;;;;5068087;28;20048;-65
2022/12/07 04:02:28;;;;;;;8.60;4.80;;;2.40;99.90;;;;;;5067269;28;20135;-66
2022/12/07 04:04:55;;;;;;;8.82;3.88;;;2.40;99.90;;;;;;5067467;28;20094;-65
2022/12/07 04:07:21;;;;;;;5.93;3.35;;;2.30;99.90;;;;;;5068418;28;20202;-65
2022/12/07 04:09:47;;;;;;;5.38;3.10;;;2.30;99.90;;;;;;5067602;28;20155;-65
2022/12/07 04:12:12;;;;;;;5.90;2.92;;;2.40;99.90;;;;;;5067793;28;20086;-65
2022/12/07 04:14:38;;;;;;;4.82;2.90;;;2.30;99.90;;;;;;5068796;28;20040;-65
2022/12/07 04:17:03;;;;;;;5.32;3.42;;;2.40;99.90;;;;;;5068751;28;20076;-65
2022/12/07 04:19:32;;;;;;;6.63;3.35;;;2.40;99.90;;;;;;5068164;28;20608;-65
2022/12/07 04:21:58;;;;;;;9.20;3.53;;;2.40;99.90;;;;;;5067984;28;20041;-65
2022/12/07 04:24:25;;;;;;;8.32;4.53;;;2.40;99.90;;;;;;5067144;28;20570;-65
2022/12/07 04:26:51;;;;;;;14.45;7.10;;;2.40;99.90;;;;;;5068078;28;20500;-65
2022/12/07 04:29:17;;;;;;;17.92;7.10;;;2.30;99.90;;;;;;5068264;28;20047;-65
2022/12/07 04:31:44;;;;;;;11.68;6.65;;;2.40;99.90;;;;;;5067184;28;20040;-65
2022/12/07 04:34:10;;;;;;;13.77;6.68;;;2.30;99.90;;;;;;5063948;28;20485;-65
2022/12/07 04:36:36;;;;;;;11.63;6.75;;;2.30;99.90;;;;;;5067493;28;20043;-65
2022/12/07 04:39:03;;;;;;;13.93;6.32;;;2.40;99.90;;;;;;5068311;28;20048;-65
2022/12/07 04:41:29;;;;;;;25.73;7.25;;;2.40;99.90;;;;;;5066403;28;20048;-65
2022/12/07 04:43:57;;;;;;;14.32;7.03;;;2.30;99.90;;;;;;5067392;28;20052;-65
2022/12/07 04:46:24;;;;;;;17.50;8.65;;;2.30;99.90;;;;;;5067556;28;20047;-65
2022/12/07 04:48:50;;;;;;;14.45;7.07;;;2.30;99.90;;;;;;5067429;28;20041;-65
2022/12/07 04:51:21;;;;;;;13.40;7.65;;;2.30;99.90;;;;;;5067001;28;20540;-65
2022/12/07 04:53:47;;;;;;;14.07;7.50;;;2.30;99.90;;;;;;5063803;28;20044;-65
2022/12/07 04:56:14;;;;;;;17.13;8.57;;;2.40;99.90;;;;;;5061412;28;20139;-65
2022/12/07 04:58:39;;;;;;;21.33;7.90;;;2.40;99.90;;;;;;5060418;28;20093;-65
2022/12/07 05:01:05;;;;;;;17.35;8.07;;;2.40;99.90;;;;;;5062200;28;20048;-65
2022/12/07 05:03:31;;;;;;;16.70;7.40;;;2.40;99.90;;;;;;5066976;28;20048;-65
2022/12/07 05:05:56;;;;;;;19.75;7.93;;;2.40;99.90;;;;;;5066768;28;20139;-65
2022/12/07 05:08:22;;;;;;;25.10;8.48;;;2.40;99.90;;;;;;5067131;28;20042;-65
2022/12/07 05:10:49;;;;;;;14.50;7.60;;;2.40;99.90;;;;;;5066951;28;20051;-65
2022/12/07 05:13:14;;;;;;;21.58;7.88;;;2.40;99.90;;;;;;5064112;28;20047;-66
2022/12/07 05:15:40;;;;;;;18.30;7.50;;;2.40;99.90;;;;;;5063740;28;20040;-65
2022/12/07 05:18:06;;;;;;;13.52;7.07;;;2.40;99.90;;;;;;5064456;28;20043;-65
2022/12/07 05:20:32;;;;;;;20.67;7.47;;;2.40;99.90;;;;;;5067855;28;20032;-65
2022/12/07 05:22:58;;;;;;;21.23;6.75;;;2.50;99.90;;;;;;5066531;28;20040;-65
2022/12/07 05:25:24;;;;;;;14.55;7.15;;;2.40;99.90;;;;;;5065831;28;20048;-65
2022/12/07 05:27:49;;;;;;;18.48;6.88;;;2.40;99.90;;;;;;5067579;28;20049;-65
2022/12/07 05:30:15;;;;;;;19.52;8.15;;;2.50;99.90;;;;;;5066071;28;20399;-65
2022/12/07 05:32:41;;;;;;;17.92;6.53;;;2.40;99.90;;;;;;5063007;28;20040;-65
2022/12/07 05:35:07;;;;;;;17.52;6.55;;;2.40;99.90;;;;;;5066080;28;20024;-65
2022/12/07 05:37:33;;;;;;;21.25;6.90;;;2.40;99.90;;;;;;5068348;28;20052;-65
2022/12/07 05:39:58;;;;;;;13.80;5.78;;;2.40;99.90;;;;;;5065556;28;20110;-65
2022/12/07 05:42:24;;;;;;;18.38;5.90;;;2.40;99.90;;;;;;5066876;28;20040;-66
2022/12/07 05:44:50;;;;;;;16.02;5.80;;;2.40;99.90;;;;;;5063895;28;20039;-65
2022/12/07 05:47:15;;;;;;;13.23;5.97;;;2.40;99.90;;;;;;5061189;28;20040;-64
2022/12/07 05:49:41;;;;;;;21.15;6.80;;;2.50;99.90;;;;;;5065721;28;20050;-66
2022/12/07 05:52:07;;;;;;;15.10;5.45;;;2.50;99.90;;;;;;5047889;28;20442;-66
2022/12/07 05:54:33;;;;;;;17.67;4.60;;;2.50;99.90;;;;;;5067215;28;20037;-66
2022/12/07 05:56:58;;;;;;;15.50;5.07;;;2.40;99.90;;;;;;5064616;28;20067;-66
2022/12/07 05:59:24;;;;;;;13.05;5.28;;;2.40;99.90;;;;;;5067271;28;20068;-66
2022/12/07 06:01:58;;;;;;;19.50;5.55;;;2.40;99.90;;;;;;5065216;28;20048;-66
2022/12/07 06:04:26;;;;;;;12.73;5.18;;;2.40;99.90;;;;;;5057665;28;20052;-66
2022/12/07 06:06:52;;;;;;;15.32;4.47;;;2.40;99.90;;;;;;5063241;28;20420;-66
2022/12/07 06:09:20;;;;;;;23.42;5.30;;;2.40;99.90;;;;;;5066552;28;20038;-65
2022/12/07 06:14:30;;;;;;;10.07;4.97;;;2.40;99.90;;;;;;5058042;28;21017;-63
2022/12/07 06:16:55;;;;;;;20.95;5.35;;;2.40;99.90;;;;;;5062172;28;20136;-63
2022/12/07 06:19:21;;;;;;;10.05;4.80;;;2.40;99.90;;;;;;5062712;28;20044;-63
2022/12/07 06:21:47;;;;;;;13.13;4.97;;;2.50;99.90;;;;;;5062661;28;20222;-60
2022/12/07 06:24:14;;;;;;;18.88;5.78;;;2.50;99.90;;;;;;5064342;28;20036;-70
2022/12/07 06:26:40;;;;;;;15.57;5.55;;;2.40;99.90;;;;;;5065485;28;20044;-64
2022/12/07 06:29:06;;;;;;;12.05;4.82;;;2.50;99.90;;;;;;5066031;28;20029;-67
2022/12/07 06:31:32;;;;;;;13.43;4.63;;;2.50;99.90;;;;;;5064968;28;20497;-66
2022/12/07 06:34:03;;;;;;;13.05;4.82;;;2.40;99.90;;;;;;5062654;28;20045;-64
2022/12/07 06:36:29;;;;;;;16.02;4.47;;;2.40;99.90;;;;;;5066306;28;20131;-63
2022/12/07 06:38:55;;;;;;;11.57;4.15;;;2.40;99.90;;;;;;5066017;28;20046;-66
2022/12/07 06:41:21;;;;;;;11.73;4.00;;;2.30;99.90;;;;;;5064404;28;20127;-66
2022/12/07 06:43:47;;;;;;;10.60;4.32;;;2.40;99.90;;;;;;5064803;28;20491;-66
2022/12/07 06:46:14;;;;;;;15.73;4.68;;;2.40;99.90;;;;;;5065501;28;20047;-67
2022/12/07 06:48:40;;;;;;;12.63;4.07;;;2.40;99.90;;;;;;5066328;28;20032;-67
2022/12/07 06:51:06;;;;;;;16.08;3.75;;;2.40;99.90;;;;;;5065139;28;20553;-68
2022/12/07 06:53:32;;;;;;;12.77;3.55;;;2.40;99.90;;;;;;5064137;28;20044;-69
2022/12/07 06:55:57;;;;;;;13.85;3.47;;;2.40;99.90;;;;;;5064175;28;20507;-68
2022/12/07 06:58:23;;;;;;;11.13;4.47;;;2.40;99.90;;;;;;5066307;28;20068;-67
2022/12/07 07:00:50;;;;;;;12.05;3.95;;;2.30;99.90;;;;;;5063235;28;20032;-70
2022/12/07 07:03:15;;;;;;;10.88;3.47;;;2.40;99.90;;;;;;5065483;28;20072;-69
2022/12/07 07:05:42;;;;;;;8.10;3.15;;;2.40;99.90;;;;;;5066467;28;20079;-68
2022/12/07 07:08:08;;;;;;;6.47;3.42;;;2.30;99.90;;;;;;5065392;28;20471;-68
2022/12/07 07:10:33;;;;;;;16.17;3.15;;;2.40;99.90;;;;;;5065651;28;20064;-68
2022/12/07 07:12:59;;;;;;;9.80;2.92;;;2.30;99.90;;;;;;5064116;28;20484;-64
2022/12/07 07:15:25;;;;;;;19.50;3.70;;;2.30;99.90;;;;;;5061643;28;20037;-65
2022/12/07 07:17:51;;;;;;;11.27;3.60;;;2.20;99.90;;;;;;5063617;28;20040;-65
2022/12/07 07:20:16;;;;;;;10.70;3.05;;;2.20;99.90;;;;;;5065176;28;20156;-66
2022/12/07 07:22:42;;;;;;;12.02;2.75;;;2.10;99.90;;;;;;5064823;28;20036;-65
2022/12/07 07:25:08;;;;;;;16.63;3.10;;;2.20;99.90;;;;;;5066495;28;20044;-67
2022/12/07 07:27:33;;;;;;;11.20;2.90;;;2.10;99.90;;;;;;5067502;28;20064;-68
2022/12/07 07:29:59;;;;;;;13.65;3.50;;;2.20;99.90;;;;;;5069712;28;20036;-68
2022/12/07 07:32:25;;;;;;;12.48;3.30;;;2.20;99.90;;;;;;5063989;28;20041;-67
2022/12/07 07:34:50;;;;;;;13.77;3.45;;;2.20;99.90;;;;;;5064391;28;20450;-68
2022/12/07 07:37:16;;;;;;;10.40;3.33;;;2.20;99.90;;;;;;5064561;28;20041;-67
2022/12/07 07:39:42;;;;;;;11.05;3.90;;;2.20;99.90;;;;;;5070658;28;20033;-67
2022/12/07 07:42:07;;;;;;;11.55;4.45;;;2.20;99.90;;;;;;5069050;28;20036;-68
2022/12/07 07:44:34;;;;;;;10.27;3.80;;;2.20;99.90;;;;;;5066934;28;20044;-67
2022/12/07 07:47:00;;;;;;;6.90;3.05;;;2.20;99.90;;;;;;5067950;28;20078;-69
2022/12/07 07:49:26;;;;;;;6.15;2.83;;;2.20;99.90;;;;;;5069557;28;20045;-68
2022/12/07 07:51:52;;;;;;;7.63;3.28;;;2.20;99.90;;;;;;5066108;28;20041;-67
2022/12/07 07:54:17;;;;;;;9.55;3.17;;;2.20;99.90;;;;;;5054840;28;20036;-67
2022/12/07 07:56:43;;;;;;;5.43;3.15;;;2.20;99.90;;;;;;5068598;28;20051;-67
2022/12/07 07:59:09;;;;;;;7.68;3.13;;;2.10;99.90;;;;;;5070703;28;20035;-67
2022/12/07 08:01:34;;;;;;;7.93;3.47;;;2.20;99.90;;;;;;5068591;28;20055;-68
2022/12/07 08:04:00;;;;;;;5.65;2.65;;;2.20;99.90;;;;;;5070667;28;20045;-68
2022/12/07 08:06:26;;;;;;;9.10;4.00;;;2.20;99.90;;;;;;5070462;28;20578;-67
2022/12/07 08:08:52;;;;;;;7.88;3.25;;;2.20;99.90;;;;;;5070541;28;20131;-67
2022/12/07 08:11:18;;;;;;;6.32;3.20;;;2.20;99.90;;;;;;5065132;28;20072;-67
2022/12/07 08:13:47;;;;;;;15.05;4.38;;;2.20;99.90;;;;;;5063016;28;20075;-67
2022/12/07 08:16:14;;;;;;;12.27;3.75;;;2.20;99.90;;;;;;5066619;28;20097;-66
2022/12/07 08:18:41;;;;;;;8.73;3.22;;;2.20;99.90;;;;;;5069071;28;20411;-67
2022/12/07 08:21:13;;;;;;;11.70;3.50;;;2.20;99.90;;;;;;5070887;28;20036;-67
2022/12/07 08:23:39;;;;;;;12.95;3.35;;;2.10;99.90;;;;;;5065532;28;20052;-67
2022/12/07 08:26:07;;;;;;;8.70;3.40;;;2.20;99.90;;;;;;5065284;28;20055;-66
2022/12/07 08:28:33;;;;;;;7.90;2.83;;;2.10;99.90;;;;;;5065541;28;20048;-66
2022/12/07 08:31:03;;;;;;;8.00;2.75;;;2.20;99.90;;;;;;5066675;28;20040;-67
2022/12/07 08:33:29;;;;;;;6.05;2.35;;;2.20;99.90;;;;;;5067470;28;20381;-67
2022/12/07 08:35:59;;;;;;;5.28;2.83;;;2.20;99.90;;;;;;5068118;28;20071;-65
2022/12/07 08:38:25;;;;;;;5.40;2.60;;;2.20;99.90;;;;;;5068940;28;20042;-66
2022/12/07 08:40:55;;;;;;;11.15;3.08;;;2.20;99.90;;;;;;5066212;28;20131;-67
2022/12/07 08:43:21;;;;;;;8.35;3.17;;;2.20;99.90;;;;;;5065381;28;20064;-66
2022/12/07 08:45:53;;;;;;;11.23;3.90;;;2.10;99.90;;;;;;5067017;28;20601;-67
2022/12/07 08:48:21;;;;;;;14.00;4.25;;;2.20;99.90;;;;;;5068386;28;20077;-67
2022/12/07 08:50:48;;;;;;;11.88;3.85;;;2.20;99.90;;;;;;5066596;28;20068;-67
2022/12/07 08:53:14;;;;;;;13.60;3.67;;;2.20;99.90;;;;;;5065214;28;20044;-67
2022/12/07 08:55:39;;;;;;;10.00;3.72;;;2.30;99.90;;;;;;5066703;28;20066;-67
2022/12/07 08:58:05;;;;;;;12.80;4.82;;;2.30;99.90;;;;;;5061070;28;20211;-67
2022/12/07 09:00:31;;;;;;;7.63;3.63;;;2.30;99.90;;;;;;5067169;28;20420;-67
2022/12/07 09:02:57;;;;;;;11.13;3.63;;;2.30;99.90;;;;;;5067305;28;20094;-67
2022/12/07 09:05:23;;;;;;;8.48;3.70;;;2.30;99.90;;;;;;5068176;28;20047;-67
2022/12/07 09:07:51;;;;;;;16.05;3.85;;;2.40;99.90;;;;;;5064520;28;20078;-66
2022/12/07 09:10:17;;;;;;;14.27;4.25;;;2.40;99.90;;;;;;5066225;28;20120;-66
2022/12/07 09:12:43;;;;;;;14.13;3.63;;;2.50;99.90;;;;;;5066576;28;20047;-65
2022/12/07 09:15:09;;;;;;;15.52;3.55;;;2.60;99.90;;;;;;5059422;28;20040;-65
2022/12/07 09:17:35;;;;;;;11.98;3.10;;;2.70;99.90;;;;;;5066271;28;20071;-65
2022/12/07 09:20:02;;;;;;;13.77;4.20;;;2.70;99.90;;;;;;5066989;28;20036;-67
2022/12/07 09:22:31;;;;;;;10.07;3.22;;;2.70;99.90;;;;;;5066527;28;20040;-66
2022/12/07 09:24:58;;;;;;;16.30;3.90;;;2.60;99.90;;;;;;5060751;28;20488;-66
2022/12/07 09:27:24;;;;;;;10.85;3.28;;;2.60;99.90;;;;;;5063390;28;20083;-67
2022/12/07 09:29:50;;;;;;;10.32;3.90;;;2.50;99.90;;;;;;5067891;28;20064;-67
2022/12/07 09:32:16;;;;;;;9.82;3.33;;;2.50;99.90;;;;;;5066655;28;20139;-67
2022/12/07 09:34:41;;;;;;;14.07;4.20;;;2.60;99.90;;;;;;5056118;28;20417;-66
2022/12/07 09:37:07;;;;;;;12.40;3.72;;;2.60;99.90;;;;;;5063053;28;20040;-65
2022/12/07 09:39:33;;;;;;;9.77;3.53;;;2.60;99.90;;;;;;5067229;28;20116;-67
2022/12/07 09:42:02;;;;;;;13.10;3.63;;;2.60;99.90;;;;;;5066606;28;20508;-67
2022/12/07 09:44:28;;;;;;;12.05;4.10;;;2.50;99.90;;;;;;5065049;28;20044;-68
2022/12/07 09:46:54;;;;;;;15.35;5.60;;;2.50;99.90;;;;;;5063611;28;20731;-67
2022/12/07 09:49:23;;;;;;;14.68;4.65;;;2.60;99.90;;;;;;5065750;28;20040;-68
2022/12/07 09:52:16;;;;;;;11.48;3.65;;;2.50;99.90;;;;;;5064917;28;20033;-67
2022/12/07 09:54:46;;;;;;;16.17;3.58;;;2.60;99.90;;;;;;5058524;28;20045;-68
2022/12/07 09:57:12;;;;;;;10.05;3.85;;;2.60;99.90;;;;;;5061424;28;20075;-67
2022/12/07 09:59:40;;;;;;;7.25;2.78;;;2.70;99.90;;;;;;5063647;28;20032;-66
2022/12/07 10:02:42;;;;;;;8.57;3.55;;;2.60;99.90;;;;;;5063545;28;20036;-67
2022/12/07 10:05:15;;;;;;;6.80;3.22;;;2.70;99.90;;;;;;5058916;28;20047;-66
2022/12/07 10:07:41;;;;;;;11.02;3.55;;;2.70;99.90;;;;;;5059450;28;20048;-67
2022/12/07 10:10:15;;;;;;;6.75;2.80;;;2.80;99.90;;;;;;5062063;28;20102;-67
2022/12/07 10:13:02;;;;;;;8.13;3.15;;;2.70;99.90;;;;;;5060202;28;20501;-66
2022/12/07 10:15:46;;;;;;;11.48;3.05;;;2.80;99.90;;;;;;5055377;28;20132;-67
2022/12/07 10:18:32;;;;;;;12.40;3.35;;;2.80;99.90;;;;;;5053861;28;20372;-67
2022/12/07 10:21:23;;;;;;;6.68;3.33;;;2.90;99.90;;;;;;5061864;28;20065;-68
2022/12/07 10:24:11;;;;;;;10.15;2.67;;;2.80;99.90;;;;;;5065643;28;20076;-67
2022/12/07 10:26:59;;;;;;;16.27;3.05;;;2.80;99.90;;;;;;5063905;28;20048;-67
2022/12/07 10:29:37;;;;;;;9.18;3.15;;;2.80;99.90;;;;;;5059655;28;20054;-68
2022/12/07 10:32:06;;;;;;;9.02;2.90;;;2.80;99.90;;;;;;5062599;28;20119;-67
2022/12/07 10:34:35;;;;;;;8.05;2.40;;;2.90;99.90;;;;;;5066638;28;20048;-68
2022/12/07 10:37:16;;;;;;;7.47;2.75;;;3.00;99.90;;;;;;5064772;28;20048;-67
2022/12/07 10:39:45;;;;;;;11.57;2.90;;;3.10;99.90;;;;;;5064354;28;20523;-68
2022/12/07 10:42:26;;;;;;;10.18;3.00;;;3.00;99.90;;;;;;5064150;28;20129;-67
2022/12/07 10:45:24;;;;;;;6.72;2.47;;;3.00;99.90;;;;;;5064118;28;20070;-67
2022/12/07 10:47:59;;;;;;;7.40;1.98;;;3.10;99.90;;;;;;5039961;28;20048;-68
2022/12/07 10:50:45;;;;;;;12.40;2.33;;;3.10;99.90;;;;;;5065121;28;20045;-68
2022/12/07 10:53:18;;;;;;;;;;;3.20;99.90;;;;;;5060877;28;20086;-68
2022/12/07 10:55:58;;;;;;;11.10;2.30;;;3.20;99.90;;;;;;5061330;28;19956;-67
2022/12/07 10:58:51;;;;;;;6.25;2.20;;;3.20;99.90;;;;;;5055961;28;20038;-68
2022/12/07 11:01:48;;;;;;;6.57;2.25;;;3.20;99.90;;;;;;5049298;28;20036;-64
2022/12/07 11:04:38;;;;;;;8.40;1.88;;;3.40;99.90;;;;;;5053129;28;20044;-66
2022/12/07 11:07:16;;;;;;;11.43;2.28;;;3.50;99.90;;;;;;5063096;28;20049;-66
2022/12/07 11:10:13;;;;;;;8.32;2.58;;;3.40;99.90;;;;;;5047811;28;20041;-63
2022/12/07 11:12:56;;;;;;;8.02;2.22;;;3.50;99.90;;;;;;5051751;28;20060;-66
2022/12/07 11:15:22;;;;;;;4.78;2.47;;;3.60;99.90;;;;;;5059621;28;20496;-65
2022/12/07 11:18:00;;;;;;;9.25;2.58;;;3.60;99.90;;;;;;5063505;28;20040;-65
2022/12/07 11:20:58;;;;;;;11.32;2.58;;;3.60;99.90;;;;;;5063308;28;20623;-66
2022/12/07 11:23:42;;;;;;;9.88;2.55;;;3.30;99.90;;;;;;5058544;28;20044;-66
2022/12/07 11:26:42;;;;;;;7.55;2.45;;;3.30;99.90;;;;;;5056323;28;20033;-66
2022/12/07 11:29:16;;;;;;;6.97;2.45;;;3.30;99.90;;;;;;5062803;28;20039;-65
2022/12/07 11:31:45;;;;;;;10.20;3.42;;;3.30;99.90;;;;;;5060852;28;20107;-67
2022/12/07 11:34:19;;;;;;;12.95;2.67;;;3.30;99.90;;;;;;5060282;28;20063;-64
2022/12/07 11:36:50;;;;;;;13.40;2.67;;;3.20;99.90;;;;;;5061711;28;20465;-67
2022/12/07 11:39:18;;;;;;;10.88;3.10;;;3.20;99.90;;;;;;5052818;28;20037;-67
2022/12/07 11:41:50;;;;;;;11.48;3.05;;;3.20;99.90;;;;;;5062184;28;20040;-65
2022/12/07 11:44:36;;;;;;;11.75;3.03;;;3.20;99.90;;;;;;5061912;28;20060;-66
2022/12/07 11:47:21;;;;;;;12.93;3.75;;;3.20;99.90;;;;;;5062861;28;20119;-67
2022/12/07 11:49:52;;;;;;;8.85;2.92;;;3.20;99.90;;;;;;5064546;28;20147;-66
2022/12/07 11:52:27;;;;;;;8.85;3.13;;;3.20;99.90;;;;;;5059937;28;20024;-67
2022/12/07 11:54:53;;;;;;;8.63;3.35;;;3.20;99.90;;;;;;5054389;28;20048;-67
2022/12/07 11:57:37;;;;;;;10.30;2.88;;;3.20;99.90;;;;;;5095160;28;20043;-66
2022/12/07 12:00:12;;;;;;;10.48;2.78;;;3.20;99.90;;;;;;5061928;28;20036;-67
2022/12/07 12:03:03;;;;;;;9.27;3.30;;;3.20;99.90;;;;;;5061764;28;20040;-67
2022/12/07 12:05:29;;;;;;;9.40;2.70;;;3.30;99.90;;;;;;5055885;28;20040;-66
2022/12/07 12:08:26;;;;;;;13.23;3.78;;;3.40;99.90;;;;;;5064500;28;20047;-66
2022/12/07 12:11:20;;;;;;;7.85;2.97;;;3.40;99.90;;;;;;5063996;28;20044;-67
2022/12/07 12:14:07;;;;;;;8.80;2.58;;;3.50;99.90;;;;;;5056483;28;20059;-67
2022/12/07 12:16:57;;;;;;;7.28;3.03;;;3.50;99.90;;;;;;5066677;28;20060;-68
2022/12/07 12:19:41;;;;;;;13.25;3.38;;;3.40;99.90;;;;;;5066541;28;20039;-67
2022/12/07 12:22:17;;;;;;;15.57;3.58;;;3.40;99.90;;;;;;5066770;28;20503;-66
2022/12/07 12:24:46;;;;;;;15.60;3.20;;;3.30;99.90;;;;;;5065357;28;20044;-64
2022/12/07 12:27:27;;;;;;;10.25;3.75;;;3.40;99.90;;;;;;5063654;28;20041;-65
2022/12/07 12:29:59;;;;;;;10.65;2.95;;;3.30;99.90;;;;;;5064949;28;20105;-66
2022/12/07 12:32:40;;;;;;;7.30;2.33;;;3.20;99.90;;;;;;5063105;28;20100;-66
2022/12/07 12:35:30;;;;;;;7.00;3.00;;;3.30;99.90;;;;;;5062937;28;20036;-68
2022/12/07 12:38:16;;;;;;;8.90;3.17;;;;;;;;;;5062852;28;20068;-67
2022/12/07 12:40:43;;;;;;;7.95;3.15;;;;;;;;;;5063571;28;20047;-68
2022/12/07 12:43:29;;;;;;;12.38;4.03;;;;;;;;;;5063966;28;20040;-67
2022/12/07 12:46:24;;;;;;;10.30;3.97;;;;;;;;;;5063491;28;20123;-67
2022/12/07 12:48:50;;;;;;;12.25;3.38;;;;;;;;;;5058887;28;20136;-67
2022/12/07 12:51:34;;;;;;;9.10;3.53;;;;;;;;;;5063547;28;20123;-67
2022/12/07 12:54:13;;;;;;;8.13;3.55;;;;;;;;;;5065148;28;20044;-67
2022/12/07 12:56:39;;;;;;;17.05;4.43;;;;;;;;;;5065065;28;20502;-67
2022/12/07 12:59:25;;;;;;;12.85;4.50;;;;;;;;;;5063872;28;20178;-67
2022/12/07 13:01:53;;;;;;;12.07;4.43;;;;;;;;;;5063234;28;20593;-67
2022/12/07 13:04:29;;;;;;;10.35;4.00;;;;;;;;;;5062424;28;20036;-67
2022/12/07 13:06:55;;;;;;;17.23;4.25;;;;;;;;;;5061404;28;20049;-67
2022/12/07 13:09:23;;;;;;;11.32;4.65;;;;;;;;;;5063313;28;20687;-67
2022/12/07 13:11:50;;;;;;;17.25;4.85;;;;;;;;;;5063510;28;20035;-67
2022/12/07 13:14:35;;;;;;;9.73;4.55;;;;;;;;;;5062265;28;20165;-68
2022/12/07 13:17:01;;;;;;;9.52;4.43;;;;;;;;;;5062550;28;20048;-67